sensor_id;sensor_type;location;lat;lon;timestamp;P1;durP1;ratioP1;P2;durP2;ratioP2
20739;SDS011;10530;49.968;19.844;2023-05-10T00:04:01;7.85;;;3.72;;
20739;SDS011;10530;49.968;19.844;2023-05-10T00:09:04;12.33;;;3.97;;
20739;SDS011;10530;49.968;19.844;2023-05-10T00:14:07;8.43;;;3.90;;
20739;SDS011;10530;49.968;19.844;2023-05-10T00:19:10;11.82;;;4.47;;
20739;SDS011;10530;49.968;19.844;2023-05-10T00:24:13;11.93;;;4.13;;
20739;SDS011;10530;49.968;19.844;2023-05-10T00:29:15;12.18;;;4.43;;
20739;SDS011;10530;49.968;19.844;2023-05-10T00:34:18;11.50;;;3.87;;
20739;SDS011;10530;49.968;19.844;2023-05-10T00:39:20;9.05;;;3.75;;
20739;SDS011;10530;49.968;19.844;2023-05-10T00:44:23;8.57;;;3.85;;
20739;SDS011;10530;49.968;19.844;2023-05-10T00:49:26;9.90;;;4.00;;
20739;SDS011;10530;49.968;19.844;2023-05-10T00:54:30;9.43;;;3.85;;
20739;SDS011;10530;49.968;19.844;2023-05-10T00:59:33;7.60;;;3.50;;
20739;SDS011;10530;49.968;19.844;2023-05-10T01:04:35;10.45;;;4.10;;
20739;SDS011;10530;49.968;19.844;2023-05-10T01:09:39;10.95;;;3.97;;
20739;SDS011;10530;49.968;19.844;2023-05-10T01:14:42;10.23;;;3.77;;
20739;SDS011;10530;49.968;19.844;2023-05-10T01:19:45;10.23;;;4.60;;
20739;SDS011;10530;49.968;19.844;2023-05-10T01:41:14;10.77;;;4.07;;
20739;SDS011;10530;49.968;19.844;2023-05-10T01:46:28;10.88;;;4.75;;
20739;SDS011;10530;49.968;19.844;2023-05-10T01:51:45;15.40;;;4.53;;
20739;SDS011;10530;49.968;19.844;2023-05-10T01:56:59;9.75;;;3.97;;
20739;SDS011;10530;49.968;19.844;2023-05-10T02:02:05;8.60;;;3.90;;
20739;SDS011;10530;49.968;19.844;2023-05-10T02:07:09;10.63;;;4.30;;
20739;SDS011;10530;49.968;19.844;2023-05-10T02:12:13;8.55;;;3.25;;
20739;SDS011;10530;49.968;19.844;2023-05-10T02:17:17;11.63;;;4.10;;
20739;SDS011;10530;49.968;19.844;2023-05-10T02:22:23;11.75;;;3.85;;
20739;SDS011;10530;49.968;19.844;2023-05-10T02:27:27;8.02;;;3.70;;
20739;SDS011;10530;49.968;19.844;2023-05-10T02:32:32;8.73;;;3.40;;
20739;SDS011;10530;49.968;19.844;2023-05-10T02:37:39;7.90;;;3.35;;
20739;SDS011;10530;49.968;19.844;2023-05-10T02:42:43;10.50;;;4.00;;
20739;SDS011;10530;49.968;19.844;2023-05-10T02:47:48;9.18;;;3.88;;
20739;SDS011;10530;49.968;19.844;2023-05-10T02:52:51;7.03;;;3.55;;
20739;SDS011;10530;49.968;19.844;2023-05-10T02:57:59;9.67;;;3.53;;
20739;SDS011;10530;49.968;19.844;2023-05-10T03:03:03;10.82;;;4.40;;
20739;SDS011;10530;49.968;19.844;2023-05-10T03:08:06;9.37;;;3.97;;
20739;SDS011;10530;49.968;19.844;2023-05-10T03:18:21;14.32;;;5.05;;
20739;SDS011;10530;49.968;19.844;2023-05-10T03:23:38;10.60;;;4.53;;
20739;SDS011;10530;49.968;19.844;2023-05-10T03:28:48;8.52;;;4.55;;
20739;SDS011;10530;49.968;19.844;2023-05-10T03:33:52;8.97;;;3.43;;
20739;SDS011;10530;49.968;19.844;2023-05-10T03:39:00;13.18;;;4.40;;
20739;SDS011;10530;49.968;19.844;2023-05-10T03:44:04;11.23;;;4.15;;
20739;SDS011;10530;49.968;19.844;2023-05-10T03:49:07;9.03;;;3.63;;
20739;SDS011;10530;49.968;19.844;2023-05-10T03:54:10;9.27;;;3.95;;
20739;SDS011;10530;49.968;19.844;2023-05-10T03:59:13;11.93;;;4.97;;
20739;SDS011;10530;49.968;19.844;2023-05-10T04:04:17;11.25;;;4.10;;
20739;SDS011;10530;49.968;19.844;2023-05-10T04:09:23;11.43;;;4.78;;
20739;SDS011;10530;49.968;19.844;2023-05-10T04:14:26;14.73;;;5.17;;
20739;SDS011;10530;49.968;19.844;2023-05-10T04:19:29;11.27;;;4.00;;
20739;SDS011;10530;49.968;19.844;2023-05-10T04:24:32;14.97;;;5.93;;
20739;SDS011;10530;49.968;19.844;2023-05-10T04:29:35;9.65;;;4.55;;
20739;SDS011;10530;49.968;19.844;2023-05-10T04:34:37;11.88;;;5.00;;
20739;SDS011;10530;49.968;19.844;2023-05-10T04:39:40;13.37;;;5.33;;
20739;SDS011;10530;49.968;19.844;2023-05-10T04:44:43;10.50;;;5.32;;
20739;SDS011;10530;49.968;19.844;2023-05-10T04:49:46;10.10;;;4.47;;
20739;SDS011;10530;49.968;19.844;2023-05-10T04:54:48;12.63;;;5.60;;
20739;SDS011;10530;49.968;19.844;2023-05-10T04:59:51;14.77;;;5.38;;
20739;SDS011;10530;49.968;19.844;2023-05-10T05:04:55;10.70;;;4.60;;
20739;SDS011;10530;49.968;19.844;2023-05-10T05:09:59;11.23;;;4.80;;
20739;SDS011;10530;49.968;19.844;2023-05-10T05:15:02;12.00;;;4.90;;
20739;SDS011;10530;49.968;19.844;2023-05-10T05:20:07;12.00;;;4.78;;
20739;SDS011;10530;49.968;19.844;2023-05-10T05:25:10;9.15;;;4.50;;
20739;SDS011;10530;49.968;19.844;2023-05-10T05:30:13;11.67;;;4.50;;
20739;SDS011;10530;49.968;19.844;2023-05-10T05:35:17;11.18;;;4.43;;
20739;SDS011;10530;49.968;19.844;2023-05-10T05:40:20;10.40;;;4.33;;
20739;SDS011;10530;49.968;19.844;2023-05-10T05:45:23;10.20;;;3.92;;
20739;SDS011;10530;49.968;19.844;2023-05-10T05:50:26;12.32;;;4.63;;
20739;SDS011;10530;49.968;19.844;2023-05-10T05:55:29;8.87;;;3.83;;
20739;SDS011;10530;49.968;19.844;2023-05-10T06:00:33;10.10;;;4.18;;
20739;SDS011;10530;49.968;19.844;2023-05-10T06:05:36;10.33;;;4.13;;
20739;SDS011;10530;49.968;19.844;2023-05-10T06:10:38;10.27;;;4.38;;
20739;SDS011;10530;49.968;19.844;2023-05-10T06:15:41;10.00;;;4.68;;
20739;SDS011;10530;49.968;19.844;2023-05-10T06:20:44;8.97;;;4.37;;
20739;SDS011;10530;49.968;19.844;2023-05-10T06:25:47;8.23;;;3.80;;
20739;SDS011;10530;49.968;19.844;2023-05-10T06:30:49;10.67;;;4.20;;
20739;SDS011;10530;49.968;19.844;2023-05-10T06:35:52;8.80;;;3.65;;
20739;SDS011;10530;49.968;19.844;2023-05-10T06:40:55;9.50;;;3.65;;
20739;SDS011;10530;49.968;19.844;2023-05-10T06:45:58;8.23;;;3.23;;
20739;SDS011;10530;49.968;19.844;2023-05-10T06:51:01;8.45;;;3.92;;
20739;SDS011;10530;49.968;19.844;2023-05-10T06:56:04;10.27;;;3.90;;
20739;SDS011;10530;49.968;19.844;2023-05-10T07:01:06;8.65;;;3.80;;
20739;SDS011;10530;49.968;19.844;2023-05-10T07:06:10;8.60;;;3.80;;
20739;SDS011;10530;49.968;19.844;2023-05-10T07:11:26;7.17;;;2.97;;
20739;SDS011;10530;49.968;19.844;2023-05-10T07:16:29;9.77;;;3.53;;
20739;SDS011;10530;49.968;19.844;2023-05-10T07:21:31;7.03;;;3.37;;
20739;SDS011;10530;49.968;19.844;2023-05-10T07:26:34;9.10;;;3.75;;
20739;SDS011;10530;49.968;19.844;2023-05-10T07:31:37;7.43;;;2.53;;
20739;SDS011;10530;49.968;19.844;2023-05-10T07:36:40;6.50;;;2.90;;
20739;SDS011;10530;49.968;19.844;2023-05-10T07:41:43;6.35;;;3.05;;
20739;SDS011;10530;49.968;19.844;2023-05-10T07:46:46;7.73;;;3.13;;
20739;SDS011;10530;49.968;19.844;2023-05-10T07:51:50;8.48;;;3.38;;
20739;SDS011;10530;49.968;19.844;2023-05-10T07:56:52;9.73;;;3.70;;
20739;SDS011;10530;49.968;19.844;2023-05-10T08:01:55;6.33;;;2.73;;
20739;SDS011;10530;49.968;19.844;2023-05-10T08:06:58;9.30;;;3.35;;
20739;SDS011;10530;49.968;19.844;2023-05-10T08:12:01;7.67;;;3.60;;
20739;SDS011;10530;49.968;19.844;2023-05-10T08:17:04;6.28;;;2.90;;
20739;SDS011;10530;49.968;19.844;2023-05-10T08:22:07;5.63;;;2.67;;
20739;SDS011;10530;49.968;19.844;2023-05-10T08:27:10;7.87;;;3.37;;
20739;SDS011;10530;49.968;19.844;2023-05-10T08:32:13;7.22;;;2.80;;
20739;SDS011;10530;49.968;19.844;2023-05-10T08:37:16;5.67;;;2.67;;
20739;SDS011;10530;49.968;19.844;2023-05-10T08:42:19;4.43;;;2.13;;
20739;SDS011;10530;49.968;19.844;2023-05-10T08:47:27;5.43;;;2.40;;
20739;SDS011;10530;49.968;19.844;2023-05-10T08:52:31;4.97;;;1.90;;
20739;SDS011;10530;49.968;19.844;2023-05-10T08:57:38;4.72;;;1.73;;
20739;SDS011;10530;49.968;19.844;2023-05-10T09:02:41;4.83;;;2.17;;
20739;SDS011;10530;49.968;19.844;2023-05-10T09:07:46;5.18;;;2.30;;
20739;SDS011;10530;49.968;19.844;2023-05-10T09:12:49;4.75;;;2.25;;
20739;SDS011;10530;49.968;19.844;2023-05-10T09:17:52;3.97;;;2.00;;
20739;SDS011;10530;49.968;19.844;2023-05-10T09:22:57;4.20;;;2.45;;
20739;SDS011;10530;49.968;19.844;2023-05-10T09:27:59;4.77;;;1.90;;
20739;SDS011;10530;49.968;19.844;2023-05-10T09:33:03;4.25;;;2.20;;
20739;SDS011;10530;49.968;19.844;2023-05-10T09:38:06;4.45;;;2.15;;
20739;SDS011;10530;49.968;19.844;2023-05-10T09:43:10;4.47;;;2.10;;
20739;SDS011;10530;49.968;19.844;2023-05-10T09:48:13;5.18;;;2.25;;
20739;SDS011;10530;49.968;19.844;2023-05-10T09:53:16;4.57;;;2.20;;
20739;SDS011;10530;49.968;19.844;2023-05-10T09:58:18;3.92;;;2.10;;
20739;SDS011;10530;49.968;19.844;2023-05-10T10:03:21;4.25;;;1.70;;
20739;SDS011;10530;49.968;19.844;2023-05-10T10:08:25;4.13;;;2.07;;
20739;SDS011;10530;49.968;19.844;2023-05-10T10:13:28;4.22;;;2.00;;
20739;SDS011;10530;49.968;19.844;2023-05-10T10:18:31;5.63;;;2.33;;
20739;SDS011;10530;49.968;19.844;2023-05-10T10:23:35;3.78;;;1.67;;
20739;SDS011;10530;49.968;19.844;2023-05-10T10:28:48;4.63;;;1.80;;
20739;SDS011;10530;49.968;19.844;2023-05-10T10:34:26;5.13;;;2.00;;
20739;SDS011;10530;49.968;19.844;2023-05-10T10:39:31;4.50;;;2.20;;
20739;SDS011;10530;49.968;19.844;2023-05-10T10:44:37;3.77;;;1.97;;
20739;SDS011;10530;49.968;19.844;2023-05-10T10:54:49;4.35;;;2.17;;
20739;SDS011;10530;49.968;19.844;2023-05-10T11:10:31;4.27;;;2.20;;
20739;SDS011;10530;49.968;19.844;2023-05-10T11:15:35;6.80;;;3.15;;
20739;SDS011;10530;49.968;19.844;2023-05-10T11:20:40;4.55;;;2.30;;
20739;SDS011;10530;49.968;19.844;2023-05-10T11:25:47;4.53;;;2.27;;
20739;SDS011;10530;49.968;19.844;2023-05-10T11:30:52;5.63;;;2.42;;
20739;SDS011;10530;49.968;19.844;2023-05-10T11:35:55;4.23;;;2.00;;
20739;SDS011;10530;49.968;19.844;2023-05-10T11:40:58;4.00;;;2.10;;
20739;SDS011;10530;49.968;19.844;2023-05-10T11:46:01;4.03;;;2.60;;
20739;SDS011;10530;49.968;19.844;2023-05-10T11:51:04;5.90;;;2.17;;
20739;SDS011;10530;49.968;19.844;2023-05-10T11:56:09;4.18;;;2.08;;
20739;SDS011;10530;49.968;19.844;2023-05-10T12:01:13;4.10;;;2.10;;
20739;SDS011;10530;49.968;19.844;2023-05-10T12:06:16;4.75;;;2.53;;
20739;SDS011;10530;49.968;19.844;2023-05-10T12:11:23;4.50;;;2.10;;
20739;SDS011;10530;49.968;19.844;2023-05-10T12:16:30;5.93;;;2.13;;
20739;SDS011;10530;49.968;19.844;2023-05-10T12:21:33;5.72;;;2.08;;
20739;SDS011;10530;49.968;19.844;2023-05-10T12:26:36;6.50;;;2.20;;
20739;SDS011;10530;49.968;19.844;2023-05-10T12:31:57;4.30;;;2.00;;
20739;SDS011;10530;49.968;19.844;2023-05-10T12:37:01;4.18;;;2.17;;
20739;SDS011;10530;49.968;19.844;2023-05-10T12:42:05;4.13;;;2.10;;
20739;SDS011;10530;49.968;19.844;2023-05-10T12:47:08;5.47;;;2.33;;
20739;SDS011;10530;49.968;19.844;2023-05-10T12:52:11;3.60;;;1.90;;
20739;SDS011;10530;49.968;19.844;2023-05-10T12:57:14;5.07;;;2.05;;
20739;SDS011;10530;49.968;19.844;2023-05-10T13:02:17;4.32;;;2.20;;
20739;SDS011;10530;49.968;19.844;2023-05-10T13:07:20;4.30;;;2.17;;
20739;SDS011;10530;49.968;19.844;2023-05-10T13:12:23;4.07;;;1.83;;
20739;SDS011;10530;49.968;19.844;2023-05-10T13:17:26;3.77;;;2.00;;
20739;SDS011;10530;49.968;19.844;2023-05-10T13:22:28;3.75;;;1.77;;
20739;SDS011;10530;49.968;19.844;2023-05-10T13:27:41;4.22;;;2.00;;
20739;SDS011;10530;49.968;19.844;2023-05-10T13:32:44;4.70;;;2.17;;
20739;SDS011;10530;49.968;19.844;2023-05-10T13:37:47;4.32;;;2.08;;
20739;SDS011;10530;49.968;19.844;2023-05-10T13:42:51;6.00;;;2.27;;
20739;SDS011;10530;49.968;19.844;2023-05-10T13:47:54;5.78;;;2.30;;
20739;SDS011;10530;49.968;19.844;2023-05-10T13:52:57;4.35;;;2.25;;
20739;SDS011;10530;49.968;19.844;2023-05-10T13:58:00;6.20;;;2.20;;
20739;SDS011;10530;49.968;19.844;2023-05-10T14:03:03;5.20;;;2.35;;
20739;SDS011;10530;49.968;19.844;2023-05-10T14:08:07;4.70;;;2.00;;
20739;SDS011;10530;49.968;19.844;2023-05-10T14:13:11;4.35;;;2.20;;
20739;SDS011;10530;49.968;19.844;2023-05-10T14:18:14;3.95;;;2.00;;
20739;SDS011;10530;49.968;19.844;2023-05-10T14:23:17;5.23;;;2.13;;
20739;SDS011;10530;49.968;19.844;2023-05-10T14:28:21;4.20;;;2.15;;
20739;SDS011;10530;49.968;19.844;2023-05-10T14:33:25;4.80;;;2.30;;
20739;SDS011;10530;49.968;19.844;2023-05-10T14:38:28;5.68;;;2.10;;
20739;SDS011;10530;49.968;19.844;2023-05-10T14:43:31;4.22;;;1.90;;
20739;SDS011;10530;49.968;19.844;2023-05-10T14:48:34;4.83;;;1.80;;
20739;SDS011;10530;49.968;19.844;2023-05-10T14:53:37;4.20;;;2.28;;
20739;SDS011;10530;49.968;19.844;2023-05-10T14:58:40;4.87;;;2.10;;
20739;SDS011;10530;49.968;19.844;2023-05-10T15:03:42;4.07;;;1.80;;
20739;SDS011;10530;49.968;19.844;2023-05-10T15:08:45;4.85;;;2.30;;
20739;SDS011;10530;49.968;19.844;2023-05-10T15:13:48;4.43;;;1.63;;
20739;SDS011;10530;49.968;19.844;2023-05-10T15:18:51;4.28;;;1.85;;
20739;SDS011;10530;49.968;19.844;2023-05-10T15:23:54;5.43;;;2.00;;
20739;SDS011;10530;49.968;19.844;2023-05-10T15:28:56;4.82;;;1.92;;
20739;SDS011;10530;49.968;19.844;2023-05-10T15:33:59;4.88;;;2.00;;
20739;SDS011;10530;49.968;19.844;2023-05-10T15:39:02;4.57;;;2.10;;
20739;SDS011;10530;49.968;19.844;2023-05-10T15:44:05;4.20;;;2.10;;
20739;SDS011;10530;49.968;19.844;2023-05-10T15:49:08;5.83;;;1.83;;
20739;SDS011;10530;49.968;19.844;2023-05-10T15:54:11;5.88;;;2.30;;
20739;SDS011;10530;49.968;19.844;2023-05-10T15:59:14;6.28;;;2.35;;
20739;SDS011;10530;49.968;19.844;2023-05-10T16:04:17;6.47;;;2.03;;
20739;SDS011;10530;49.968;19.844;2023-05-10T16:09:20;6.15;;;2.00;;
20739;SDS011;10530;49.968;19.844;2023-05-10T16:14:23;5.30;;;2.00;;
20739;SDS011;10530;49.968;19.844;2023-05-10T16:19:26;6.63;;;2.03;;
20739;SDS011;10530;49.968;19.844;2023-05-10T16:24:31;6.25;;;1.92;;
20739;SDS011;10530;49.968;19.844;2023-05-10T16:29:34;5.30;;;2.20;;
20739;SDS011;10530;49.968;19.844;2023-05-10T16:34:37;5.95;;;2.38;;
20739;SDS011;10530;49.968;19.844;2023-05-10T16:39:40;7.03;;;2.40;;
20739;SDS011;10530;49.968;19.844;2023-05-10T16:44:43;5.28;;;1.67;;
20739;SDS011;10530;49.968;19.844;2023-05-10T16:49:46;5.30;;;2.13;;
20739;SDS011;10530;49.968;19.844;2023-05-10T16:54:49;6.17;;;2.10;;
20739;SDS011;10530;49.968;19.844;2023-05-10T16:59:53;4.47;;;2.10;;
20739;SDS011;10530;49.968;19.844;2023-05-10T17:04:57;5.47;;;2.00;;
20739;SDS011;10530;49.968;19.844;2023-05-10T17:10:00;4.35;;;2.25;;
20739;SDS011;10530;49.968;19.844;2023-05-10T17:15:04;6.97;;;2.30;;
20739;SDS011;10530;49.968;19.844;2023-05-10T17:20:08;6.03;;;2.20;;
20739;SDS011;10530;49.968;19.844;2023-05-10T17:25:11;5.90;;;1.95;;
20739;SDS011;10530;49.968;19.844;2023-05-10T17:30:14;5.43;;;2.30;;
20739;SDS011;10530;49.968;19.844;2023-05-10T17:35:18;5.88;;;2.38;;
20739;SDS011;10530;49.968;19.844;2023-05-10T17:40:22;9.05;;;2.85;;
20739;SDS011;10530;49.968;19.844;2023-05-10T17:45:25;7.00;;;2.50;;
20739;SDS011;10530;49.968;19.844;2023-05-10T17:50:30;7.50;;;2.65;;
20739;SDS011;10530;49.968;19.844;2023-05-10T17:55:34;6.30;;;2.40;;
20739;SDS011;10530;49.968;19.844;2023-05-10T18:00:37;7.07;;;2.92;;
20739;SDS011;10530;49.968;19.844;2023-05-10T18:05:41;6.22;;;2.50;;
20739;SDS011;10530;49.968;19.844;2023-05-10T18:10:43;8.03;;;2.60;;
20739;SDS011;10530;49.968;19.844;2023-05-10T18:15:47;6.50;;;2.40;;
20739;SDS011;10530;49.968;19.844;2023-05-10T18:20:50;6.30;;;2.40;;
20739;SDS011;10530;49.968;19.844;2023-05-10T18:25:57;6.25;;;2.67;;
20739;SDS011;10530;49.968;19.844;2023-05-10T18:31:00;6.60;;;2.55;;
20739;SDS011;10530;49.968;19.844;2023-05-10T18:36:04;5.57;;;2.50;;
20739;SDS011;10530;49.968;19.844;2023-05-10T18:41:08;8.00;;;2.60;;
20739;SDS011;10530;49.968;19.844;2023-05-10T18:46:13;5.07;;;2.40;;
20739;SDS011;10530;49.968;19.844;2023-05-10T18:51:16;7.03;;;2.50;;
20739;SDS011;10530;49.968;19.844;2023-05-10T18:56:19;8.18;;;2.88;;
20739;SDS011;10530;49.968;19.844;2023-05-10T19:01:24;5.80;;;2.80;;
20739;SDS011;10530;49.968;19.844;2023-05-10T19:06:27;6.45;;;2.60;;
20739;SDS011;10530;49.968;19.844;2023-05-10T19:11:30;5.10;;;2.10;;
20739;SDS011;10530;49.968;19.844;2023-05-10T19:16:35;8.10;;;3.05;;
20739;SDS011;10530;49.968;19.844;2023-05-10T19:21:39;8.25;;;2.90;;
20739;SDS011;10530;49.968;19.844;2023-05-10T19:26:42;9.50;;;3.40;;
20739;SDS011;10530;49.968;19.844;2023-05-10T19:31:47;8.30;;;3.50;;
20739;SDS011;10530;49.968;19.844;2023-05-10T19:36:50;12.27;;;4.40;;
20739;SDS011;10530;49.968;19.844;2023-05-10T19:41:53;9.52;;;3.70;;
20739;SDS011;10530;49.968;19.844;2023-05-10T19:46:56;12.80;;;4.35;;
20739;SDS011;10530;49.968;19.844;2023-05-10T19:51:59;9.67;;;4.00;;
20739;SDS011;10530;49.968;19.844;2023-05-10T19:57:04;11.75;;;4.30;;
20739;SDS011;10530;49.968;19.844;2023-05-10T20:02:07;9.77;;;3.97;;
20739;SDS011;10530;49.968;19.844;2023-05-10T20:07:10;9.23;;;3.70;;
20739;SDS011;10530;49.968;19.844;2023-05-10T20:12:13;7.90;;;2.95;;
20739;SDS011;10530;49.968;19.844;2023-05-10T20:17:16;8.53;;;3.30;;
20739;SDS011;10530;49.968;19.844;2023-05-10T20:22:19;7.25;;;3.08;;
20739;SDS011;10530;49.968;19.844;2023-05-10T20:27:22;8.67;;;3.43;;
20739;SDS011;10530;49.968;19.844;2023-05-10T20:32:24;8.60;;;3.60;;
20739;SDS011;10530;49.968;19.844;2023-05-10T20:37:27;11.63;;;3.53;;
20739;SDS011;10530;49.968;19.844;2023-05-10T20:42:31;9.73;;;3.67;;
20739;SDS011;10530;49.968;19.844;2023-05-10T20:47:34;10.40;;;4.43;;
20739;SDS011;10530;49.968;19.844;2023-05-10T20:52:37;9.37;;;3.43;;
20739;SDS011;10530;49.968;19.844;2023-05-10T20:57:40;9.07;;;3.88;;
20739;SDS011;10530;49.968;19.844;2023-05-10T21:02:43;7.20;;;3.15;;
20739;SDS011;10530;49.968;19.844;2023-05-10T21:07:47;7.30;;;3.13;;
20739;SDS011;10530;49.968;19.844;2023-05-10T21:12:50;8.90;;;3.85;;
20739;SDS011;10530;49.968;19.844;2023-05-10T21:17:53;10.80;;;3.60;;
20739;SDS011;10530;49.968;19.844;2023-05-10T21:22:56;11.52;;;3.75;;
20739;SDS011;10530;49.968;19.844;2023-05-10T21:27:59;8.35;;;3.92;;
20739;SDS011;10530;49.968;19.844;2023-05-10T21:33:02;9.07;;;3.80;;
20739;SDS011;10530;49.968;19.844;2023-05-10T21:38:05;8.20;;;4.25;;
20739;SDS011;10530;49.968;19.844;2023-05-10T21:43:08;6.30;;;2.83;;
20739;SDS011;10530;49.968;19.844;2023-05-10T21:48:12;8.30;;;3.40;;
20739;SDS011;10530;49.968;19.844;2023-05-10T21:53:14;8.23;;;3.53;;
20739;SDS011;10530;49.968;19.844;2023-05-10T21:58:18;10.37;;;4.03;;
20739;SDS011;10530;49.968;19.844;2023-05-10T22:03:20;7.05;;;3.65;;
20739;SDS011;10530;49.968;19.844;2023-05-10T22:08:23;10.23;;;4.10;;
20739;SDS011;10530;49.968;19.844;2023-05-10T22:13:26;10.75;;;4.00;;
20739;SDS011;10530;49.968;19.844;2023-05-10T22:18:30;7.32;;;3.95;;
20739;SDS011;10530;49.968;19.844;2023-05-10T22:23:33;10.30;;;3.67;;
20739;SDS011;10530;49.968;19.844;2023-05-10T22:28:35;11.43;;;3.63;;
20739;SDS011;10530;49.968;19.844;2023-05-10T22:33:38;12.77;;;4.30;;
20739;SDS011;10530;49.968;19.844;2023-05-10T22:38:41;9.55;;;4.38;;
20739;SDS011;10530;49.968;19.844;2023-05-10T22:43:44;13.68;;;3.90;;
20739;SDS011;10530;49.968;19.844;2023-05-10T22:48:47;11.53;;;4.07;;
20739;SDS011;10530;49.968;19.844;2023-05-10T22:53:50;10.20;;;4.00;;
20739;SDS011;10530;49.968;19.844;2023-05-10T22:58:52;10.60;;;4.30;;
20739;SDS011;10530;49.968;19.844;2023-05-10T23:03:55;8.68;;;3.90;;
20739;SDS011;10530;49.968;19.844;2023-05-10T23:08:58;14.27;;;4.10;;
20739;SDS011;10530;49.968;19.844;2023-05-10T23:14:01;10.03;;;4.10;;
20739;SDS011;10530;49.968;19.844;2023-05-10T23:19:04;8.98;;;4.40;;
20739;SDS011;10530;49.968;19.844;2023-05-10T23:24:08;10.90;;;4.40;;
20739;SDS011;10530;49.968;19.844;2023-05-10T23:29:10;11.93;;;5.00;;
20739;SDS011;10530;49.968;19.844;2023-05-10T23:34:13;13.50;;;4.82;;
20739;SDS011;10530;49.968;19.844;2023-05-10T23:39:16;7.87;;;4.20;;
20739;SDS011;10530;49.968;19.844;2023-05-10T23:44:19;10.18;;;4.35;;
20739;SDS011;10530;49.968;19.844;2023-05-10T23:49:22;11.23;;;4.57;;
20739;SDS011;10530;49.968;19.844;2023-05-10T23:54:25;12.10;;;4.43;;
20739;SDS011;10530;49.968;19.844;2023-05-10T23:59:28;9.90;;;3.55;;
